Papere Vagabonde

Aviosuperficie Caposile LIKI

Pista 04


Pista 22

Le immagini vengono aggiornate ogni minuto
Cliccare sull'immagine per l'ingrandimento.

METAR LIPZ

LIPZ 200050Z 04005KT 1500 BR BKN010 03/03 Q1024 NOSIG

TAF LIPZ 192300Z 2000/2106 VRB05KT 3000 BR BKN010
  TEMPO 2000/2006 0200 FG BKN003
  TEMPO 2006/2009 DZ BKN006
  BECMG 2008/2010 6000 SCT020
  TEMPO 2016/2024 3000 BR


      

Alba: 07:42
Tramonto: 16:58

LOW LEVEL SIGWX CHART

ALL WEATHER DATA